createdAt,value
2023-05-19T00:00:31.181Z,6.38
2023-05-19T00:03:40.831Z,5.57
2023-05-19T00:06:51.059Z,6.13
2023-05-19T00:09:54.234Z,6.30
2023-05-19T00:12:57.790Z,9.27
2023-05-19T00:16:00.888Z,8.18
2023-05-19T00:19:05.765Z,6.68
2023-05-19T00:22:08.303Z,7.90
2023-05-19T00:25:10.906Z,8.45
2023-05-19T00:28:13.521Z,6.78
2023-05-19T00:31:18.678Z,5.30
2023-05-19T00:34:21.283Z,6.10
2023-05-19T00:37:23.979Z,6.50
2023-05-19T00:40:28.114Z,6.43
2023-05-19T00:43:31.230Z,7.82
2023-05-19T00:46:34.284Z,6.47
2023-05-19T00:49:37.159Z,6.90
2023-05-19T00:52:39.868Z,5.13
2023-05-19T00:55:43.001Z,6.68
2023-05-19T00:58:50.835Z,7.85
2023-05-19T01:01:54.703Z,8.50
2023-05-19T01:04:57.507Z,9.10
2023-05-19T01:08:00.116Z,14.75
2023-05-19T01:11:03.463Z,10.25
2023-05-19T01:14:06.153Z,8.35
2023-05-19T01:17:31.613Z,10.88
2023-05-19T01:20:41.785Z,9.20
2023-05-19T01:23:58.236Z,6.90
2023-05-19T01:27:20.449Z,10.43
2023-05-19T01:30:40.047Z,9.60
2023-05-19T01:33:43.904Z,7.95
2023-05-19T01:36:49.968Z,10.07
2023-05-19T01:39:53.484Z,8.32
2023-05-19T01:42:58.328Z,10.40
2023-05-19T01:46:02.804Z,13.10
2023-05-19T01:49:10.626Z,10.48
2023-05-19T01:52:13.249Z,9.65
2023-05-19T01:55:17.206Z,8.27
2023-05-19T02:01:30.069Z,10.63
2023-05-19T02:04:42.427Z,8.35
2023-05-19T02:07:55.755Z,14.13
2023-05-19T02:11:07.378Z,8.68
2023-05-19T02:14:18.287Z,8.35
2023-05-19T02:17:23.454Z,11.98
2023-05-19T02:20:26.741Z,8.45
2023-05-19T02:23:29.423Z,8.70
2023-05-19T02:26:33.224Z,12.77
2023-05-19T02:29:35.911Z,9.38
2023-05-19T02:32:38.564Z,8.65
2023-05-19T02:35:41.150Z,9.80
2023-05-19T02:38:43.793Z,9.88
2023-05-19T02:41:46.402Z,10.95
2023-05-19T02:44:49.784Z,10.60
2023-05-19T02:47:53.016Z,9.07
2023-05-19T02:50:57.461Z,10.80
2023-05-19T02:54:00.094Z,11.20
2023-05-19T02:57:02.833Z,9.52
2023-05-19T03:00:06.958Z,12.05
2023-05-19T03:03:11.748Z,10.32
2023-05-19T03:06:15.681Z,10.10
2023-05-19T03:09:18.742Z,13.77
2023-05-19T03:12:21.972Z,11.43
2023-05-19T03:15:24.763Z,12.57
2023-05-19T03:18:28.059Z,10.77
2023-05-19T03:21:32.228Z,12.60
2023-05-19T03:24:34.856Z,9.13
2023-05-19T03:27:39.224Z,11.15
2023-05-19T03:30:47.394Z,13.32
2023-05-19T03:36:58.085Z,10.57
2023-05-19T03:40:02.151Z,9.50
2023-05-19T03:46:12.002Z,9.77
2023-05-19T03:49:17.746Z,10.50
2023-05-19T03:52:49.588Z,14.05
2023-05-19T03:56:18.814Z,12.13
2023-05-19T03:59:21.503Z,11.57
2023-05-19T04:02:25.719Z,11.75
2023-05-19T04:05:28.358Z,11.48
2023-05-19T04:08:31.124Z,10.15
2023-05-19T04:11:34.761Z,14.35
2023-05-19T04:14:37.395Z,11.98
2023-05-19T04:17:40.368Z,16.80
2023-05-19T04:20:43.053Z,12.27
2023-05-19T04:23:45.773Z,11.32
2023-05-19T04:26:48.392Z,9.77
2023-05-19T04:29:53.076Z,14.48
2023-05-19T04:32:58.240Z,13.88
2023-05-19T04:36:05.634Z,13.48
2023-05-19T04:39:12.133Z,9.82
2023-05-19T04:42:21.450Z,12.30
2023-05-19T04:45:26.201Z,9.55
2023-05-19T04:48:34.162Z,12.48
2023-05-19T04:54:40.299Z,10.98
2023-05-19T04:57:44.212Z,12.70
2023-05-19T05:00:47.180Z,13.25
2023-05-19T05:03:50.092Z,13.10
2023-05-19T05:06:52.667Z,13.75
2023-05-19T05:09:57.898Z,14.20
2023-05-19T05:13:02.050Z,12.73
2023-05-19T05:16:06.675Z,12.20
2023-05-19T05:19:09.804Z,10.45
2023-05-19T05:22:15.208Z,12.82
2023-05-19T05:25:18.420Z,21.45
2023-05-19T05:28:21.557Z,17.60
2023-05-19T05:31:24.212Z,14.45
2023-05-19T05:34:27.344Z,16.88
2023-05-19T05:37:31.038Z,14.23
2023-05-19T05:40:33.614Z,18.30
2023-05-19T05:43:36.973Z,17.23
2023-05-19T05:46:41.343Z,12.32
2023-05-19T05:49:48.220Z,16.55
2023-05-19T05:52:53.951Z,15.68
2023-05-19T05:55:57.481Z,15.15
2023-05-19T05:59:04.410Z,13.32
2023-05-19T06:02:07.184Z,21.25
2023-05-19T06:05:12.507Z,16.20
2023-05-19T06:11:19.824Z,11.70
2023-05-19T06:14:23.599Z,14.38
2023-05-19T06:17:53.248Z,14.27
2023-05-19T06:20:56.179Z,15.20
2023-05-19T06:23:58.911Z,17.88
2023-05-19T06:27:02.160Z,15.70
2023-05-19T06:30:05.277Z,17.45
2023-05-19T06:33:14.494Z,14.90
2023-05-19T06:36:17.324Z,17.75
2023-05-19T06:39:21.145Z,15.88
2023-05-19T06:42:25.332Z,14.40
2023-05-19T06:45:34.544Z,15.73
2023-05-19T06:48:39.574Z,16.73
2023-05-19T06:51:43.709Z,19.85
2023-05-19T06:54:46.529Z,16.42
2023-05-19T06:57:49.147Z,22.30
2023-05-19T07:00:53.591Z,16.75
2023-05-19T07:03:59.079Z,23.52
2023-05-19T07:07:01.929Z,16.33
2023-05-19T07:10:07.974Z,22.20
2023-05-19T07:13:10.532Z,17.23
2023-05-19T07:16:13.152Z,15.75
2023-05-19T07:19:16.233Z,16.05
2023-05-19T07:22:21.123Z,16.65
2023-05-19T07:25:23.930Z,17.85
2023-05-19T07:28:26.686Z,16.48
2023-05-19T07:31:30.545Z,21.75
2023-05-19T07:34:33.160Z,14.65
2023-05-19T07:37:36.195Z,15.25
2023-05-19T07:40:38.842Z,20.40
2023-05-19T07:43:41.824Z,14.82
2023-05-19T07:46:44.546Z,16.58
2023-05-19T07:49:49.691Z,15.10
2023-05-19T07:52:53.729Z,13.13
2023-05-19T07:55:58.686Z,14.25
2023-05-19T07:59:02.495Z,14.98
2023-05-19T08:02:05.273Z,13.07
2023-05-19T08:05:09.790Z,12.20
2023-05-19T08:08:12.897Z,14.32
2023-05-19T08:11:15.521Z,12.88
2023-05-19T08:14:18.313Z,14.77
2023-05-19T08:17:20.972Z,16.77
2023-05-19T08:20:24.415Z,13.30
2023-05-19T08:23:28.307Z,19.08
2023-05-19T08:26:30.899Z,12.05
2023-05-19T08:29:33.564Z,12.75
2023-05-19T08:32:36.511Z,11.65
2023-05-19T08:35:39.059Z,14.40
2023-05-19T08:38:41.664Z,14.02
2023-05-19T08:41:44.655Z,9.07
2023-05-19T08:44:47.244Z,10.75
2023-05-19T08:47:51.521Z,8.25
2023-05-19T08:54:15.992Z,7.20
2023-05-19T08:57:19.191Z,9.65
2023-05-19T09:00:22.768Z,8.60
2023-05-19T09:03:26.691Z,9.35
2023-05-19T09:06:32.424Z,9.45
2023-05-19T09:09:36.221Z,7.50
2023-05-19T09:12:38.809Z,12.38
2023-05-19T09:15:43.006Z,7.95
2023-05-19T09:22:05.123Z,9.38
2023-05-19T09:25:20.265Z,10.23
2023-05-19T09:28:33.776Z,8.30
2023-05-19T09:31:36.430Z,7.53
2023-05-19T09:34:42.200Z,8.38
2023-05-19T09:37:44.796Z,7.32
2023-05-19T09:40:49.896Z,10.07
2023-05-19T09:43:56.341Z,9.35
2023-05-19T09:47:00.278Z,9.48
2023-05-19T09:50:04.647Z,8.20
2023-05-19T09:53:07.798Z,9.32
2023-05-19T09:56:11.125Z,6.93
2023-05-19T09:59:16.370Z,9.32
2023-05-19T10:02:21.789Z,9.35
2023-05-19T10:05:24.624Z,8.73
2023-05-19T10:08:30.623Z,8.27
2023-05-19T10:11:33.852Z,11.57
2023-05-19T10:14:38.316Z,6.80
2023-05-19T10:17:43.653Z,7.03
2023-05-19T10:20:48.792Z,10.00
2023-05-19T10:23:51.534Z,7.38
2023-05-19T10:27:05.609Z,12.43
2023-05-19T10:30:16.355Z,7.80
2023-05-19T10:33:21.218Z,6.88
2023-05-19T10:36:39.766Z,6.30
2023-05-19T10:39:44.383Z,7.45
2023-05-19T10:44:35.856Z,7.63
2023-05-19T10:47:41.809Z,6.00
2023-05-19T10:50:46.829Z,6.15
2023-05-19T10:53:50.303Z,8.68
2023-05-19T10:56:57.752Z,8.95
2023-05-19T11:00:11.623Z,7.22
2023-05-19T11:03:19.156Z,5.25
2023-05-19T11:06:25.192Z,8.25
2023-05-19T11:09:37.965Z,7.07
2023-05-19T11:12:45.672Z,7.45
2023-05-19T11:15:49.942Z,6.97
2023-05-19T11:18:55.156Z,4.82
2023-05-19T11:22:08.918Z,8.20
2023-05-19T11:25:11.527Z,6.03
2023-05-19T11:28:25.757Z,6.20
2023-05-19T11:31:30.920Z,6.03
2023-05-19T11:34:34.040Z,7.25
2023-05-19T11:37:37.186Z,6.75
2023-05-19T11:40:42.291Z,6.13
2023-05-19T11:43:47.863Z,6.43
2023-05-19T11:46:50.862Z,4.55
2023-05-19T11:49:56.674Z,4.65
2023-05-19T11:53:01.394Z,8.68
2023-05-19T11:56:05.720Z,6.03
2023-05-19T11:59:10.971Z,6.57
2023-05-19T12:02:14.087Z,6.03
2023-05-19T12:05:27.257Z,7.35
2023-05-19T12:08:30.177Z,6.18
2023-05-19T12:11:33.262Z,5.90
2023-05-19T12:14:36.201Z,10.40
2023-05-19T12:17:39.166Z,6.03
2023-05-19T12:20:42.384Z,4.68
2023-05-19T12:23:45.259Z,7.25
2023-05-19T12:26:51.987Z,5.07
2023-05-19T12:30:00.260Z,8.32
2023-05-19T12:33:03.690Z,7.65
2023-05-19T12:36:07.745Z,5.15
2023-05-19T12:39:11.696Z,10.35
2023-05-19T12:42:16.165Z,9.20
2023-05-19T12:45:21.615Z,8.07
2023-05-19T12:48:24.354Z,6.78
2023-05-19T12:51:26.963Z,7.35
2023-05-19T12:54:34.471Z,5.35
2023-05-19T12:57:39.091Z,6.78
2023-05-19T13:00:43.834Z,7.63
2023-05-19T13:03:48.657Z,5.13
2023-05-19T13:09:58.066Z,4.70
2023-05-19T13:13:01.142Z,6.57
2023-05-19T13:16:04.988Z,6.88
2023-05-19T13:19:21.207Z,7.25
2023-05-19T13:22:28.596Z,10.85
2023-05-19T13:25:32.849Z,5.65
2023-05-19T13:28:35.629Z,9.38
2023-05-19T13:31:38.508Z,5.25
2023-05-19T13:34:42.516Z,4.70
2023-05-19T13:37:46.513Z,6.18
2023-05-19T13:40:49.126Z,5.40
2023-05-19T13:43:53.151Z,4.88
2023-05-19T13:46:57.248Z,6.70
2023-05-19T13:50:00.353Z,6.93
2023-05-19T13:53:03.735Z,5.38
2023-05-19T13:56:07.172Z,7.03
2023-05-19T13:59:09.749Z,8.60
2023-05-19T14:02:12.851Z,5.05
2023-05-19T14:05:15.520Z,9.80
2023-05-19T14:08:18.955Z,5.55
2023-05-19T14:11:21.901Z,45.33
2023-05-19T14:14:27.498Z,13.35
2023-05-19T14:17:30.089Z,9.40
2023-05-19T14:20:33.104Z,5.65
2023-05-19T14:23:35.921Z,7.00
2023-05-19T14:26:38.618Z,8.10
2023-05-19T14:29:43.390Z,6.95
2023-05-19T14:32:46.022Z,9.05
2023-05-19T14:35:48.615Z,10.93
2023-05-19T14:38:51.158Z,7.50
2023-05-19T14:41:53.813Z,7.63
2023-05-19T14:44:56.380Z,6.30
2023-05-19T14:47:59.218Z,5.93
2023-05-19T14:51:01.947Z,5.15
2023-05-19T14:54:04.726Z,4.60
2023-05-19T14:57:08.241Z,6.05
2023-05-19T15:00:11.312Z,7.45
2023-05-19T15:03:14.905Z,8.55
2023-05-19T15:06:17.620Z,8.25
2023-05-19T15:09:20.165Z,5.93
2023-05-19T15:12:22.792Z,6.68
2023-05-19T15:15:25.467Z,6.18
2023-05-19T15:18:28.062Z,7.05
2023-05-19T15:21:31.341Z,5.53
2023-05-19T15:24:34.132Z,7.88
2023-05-19T15:27:36.782Z,7.20
2023-05-19T15:30:39.984Z,5.00
2023-05-19T15:33:42.788Z,8.35
2023-05-19T15:36:45.820Z,6.63
2023-05-19T15:39:48.559Z,8.35
2023-05-19T15:42:51.155Z,8.73
2023-05-19T15:45:55.350Z,5.82
2023-05-19T15:48:59.291Z,6.95
2023-05-19T15:52:04.081Z,8.43
2023-05-19T15:55:07.510Z,6.38
2023-05-19T15:58:10.362Z,6.38
2023-05-19T16:01:18.232Z,7.57
2023-05-19T16:04:21.302Z,11.00
2023-05-19T16:07:24.369Z,6.28
2023-05-19T16:10:27.068Z,7.88
2023-05-19T16:13:31.017Z,5.85
2023-05-19T16:16:33.821Z,7.10
2023-05-19T16:19:36.578Z,7.82
2023-05-19T16:22:39.442Z,5.60
2023-05-19T16:25:42.085Z,9.68
2023-05-19T16:28:44.673Z,6.65
2023-05-19T16:31:47.340Z,8.52
2023-05-19T16:34:50.210Z,6.22
2023-05-19T16:37:53.853Z,6.85
2023-05-19T16:40:56.633Z,6.95
2023-05-19T16:43:59.452Z,10.20
2023-05-19T16:47:02.034Z,9.65
2023-05-19T16:50:04.828Z,6.25
2023-05-19T16:53:07.446Z,5.90
2023-05-19T16:56:10.390Z,6.82
2023-05-19T16:59:13.921Z,5.53
2023-05-19T17:02:17.203Z,6.35
2023-05-19T17:05:20.196Z,7.07
2023-05-19T17:08:23.249Z,7.03
2023-05-19T17:11:27.416Z,10.38
2023-05-19T17:14:30.624Z,11.15
2023-05-19T17:17:33.836Z,9.82
2023-05-19T17:20:36.988Z,8.65
2023-05-19T17:23:40.485Z,6.95
2023-05-19T17:26:43.436Z,8.15
2023-05-19T17:29:46.455Z,10.63
2023-05-19T17:32:49.628Z,8.00
2023-05-19T17:35:52.722Z,8.38
2023-05-19T17:38:55.593Z,10.82
2023-05-19T17:41:58.355Z,8.38
2023-05-19T17:45:04.428Z,6.72
2023-05-19T17:48:07.275Z,9.73
2023-05-19T17:51:09.958Z,10.40
2023-05-19T17:54:13.122Z,7.07
2023-05-19T17:57:17.841Z,8.80
2023-05-19T18:00:21.207Z,7.38
2023-05-19T18:03:24.827Z,7.97
2023-05-19T18:06:29.619Z,9.73
2023-05-19T18:09:36.639Z,9.52
2023-05-19T18:12:39.489Z,7.88
2023-05-19T18:15:43.448Z,11.73
2023-05-19T18:21:53.614Z,9.52
2023-05-19T18:24:59.931Z,10.75
2023-05-19T18:28:02.617Z,13.30
2023-05-19T18:31:06.194Z,11.98
2023-05-19T18:34:08.986Z,15.48
2023-05-19T18:37:12.337Z,16.45
2023-05-19T18:40:15.076Z,11.55
2023-05-19T18:43:18.699Z,13.70
2023-05-19T18:46:22.127Z,14.18
2023-05-19T18:49:25.486Z,11.73
2023-05-19T18:52:29.180Z,9.13
2023-05-19T18:55:32.148Z,12.75
2023-05-19T18:58:36.108Z,19.55
2023-05-19T19:01:39.114Z,15.77
2023-05-19T19:04:42.186Z,15.57
2023-05-19T19:07:45.161Z,55.78
2023-05-19T19:10:50.491Z,88.53
2023-05-19T19:13:55.593Z,27.83
2023-05-19T19:16:58.236Z,10.77
2023-05-19T19:20:01.179Z,20.05
2023-05-19T19:23:06.971Z,13.18
2023-05-19T19:26:09.858Z,15.30
2023-05-19T19:29:12.484Z,14.25
2023-05-19T19:32:15.071Z,16.70
2023-05-19T19:35:17.871Z,18.45
2023-05-19T19:38:21.655Z,21.95
2023-05-19T19:41:25.422Z,17.17
2023-05-19T19:44:28.248Z,15.45
2023-05-19T19:47:31.361Z,20.13
2023-05-19T19:50:34.740Z,14.50
2023-05-19T19:53:37.698Z,15.65
2023-05-19T19:56:40.528Z,13.13
2023-05-19T19:59:43.857Z,16.65
2023-05-19T20:05:56.466Z,11.85
2023-05-19T20:08:59.829Z,18.30
2023-05-19T20:12:02.590Z,14.98
2023-05-19T20:15:07.575Z,17.60
2023-05-19T20:18:11.335Z,12.15
2023-05-19T20:21:15.078Z,11.55
2023-05-19T20:24:17.881Z,12.48
2023-05-19T20:27:20.446Z,13.25
2023-05-19T20:30:23.247Z,11.95
2023-05-19T20:33:26.538Z,11.30
2023-05-19T20:36:29.384Z,13.45
2023-05-19T20:39:32.072Z,15.27
2023-05-19T20:42:34.688Z,15.02
2023-05-19T20:45:37.767Z,13.23
2023-05-19T20:48:40.822Z,16.77
2023-05-19T20:51:43.428Z,16.58
2023-05-19T20:54:46.586Z,15.70
2023-05-19T20:57:49.153Z,18.35
2023-05-19T21:00:57.739Z,16.90
2023-05-19T21:04:01.356Z,14.25
2023-05-19T21:07:04.107Z,13.10
2023-05-19T21:10:07.584Z,14.07
2023-05-19T21:13:10.216Z,15.15
2023-05-19T21:16:12.997Z,13.38
2023-05-19T21:19:15.749Z,10.45
2023-05-19T21:22:18.333Z,12.90
2023-05-19T21:25:20.919Z,13.05
2023-05-19T21:28:23.449Z,10.50
2023-05-19T21:31:26.197Z,13.57
2023-05-19T21:34:28.912Z,14.15
2023-05-19T21:37:31.825Z,14.20
2023-05-19T21:40:34.787Z,15.73
2023-05-19T21:43:37.732Z,13.93
2023-05-19T21:46:40.252Z,10.38
2023-05-19T21:49:43.015Z,11.60
2023-05-19T21:52:47.082Z,11.40
2023-05-19T21:55:49.685Z,9.15
2023-05-19T21:58:52.363Z,10.27
2023-05-19T22:01:54.937Z,11.98
2023-05-19T22:04:57.700Z,9.70
2023-05-19T22:08:00.781Z,9.52
2023-05-19T22:11:03.460Z,11.45
2023-05-19T22:14:06.079Z,12.40
2023-05-19T22:17:09.008Z,11.35
2023-05-19T22:20:12.101Z,13.75
2023-05-19T22:23:15.163Z,12.75
2023-05-19T22:26:17.740Z,12.70
2023-05-19T22:29:20.912Z,13.55
2023-05-19T22:32:23.662Z,14.50
2023-05-19T22:35:26.351Z,10.43
2023-05-19T22:38:29.458Z,12.35
2023-05-19T22:41:32.422Z,12.00
2023-05-19T22:44:35.847Z,12.35
2023-05-19T22:47:38.559Z,27.27
2023-05-19T22:50:41.477Z,30.65
2023-05-19T22:53:46.634Z,18.30
2023-05-19T22:56:49.309Z,13.45
2023-05-19T22:59:51.871Z,11.02
2023-05-19T23:02:55.776Z,9.43
2023-05-19T23:05:58.470Z,11.70
2023-05-19T23:09:02.332Z,10.90
2023-05-19T23:12:06.566Z,10.65
2023-05-19T23:15:11.111Z,11.18
2023-05-19T23:24:21.932Z,10.85
2023-05-19T23:27:24.977Z,12.00
2023-05-19T23:30:31.509Z,9.77
2023-05-19T23:33:36.082Z,14.52
2023-05-19T23:36:38.787Z,12.20
2023-05-19T23:39:41.367Z,15.73
2023-05-19T23:42:44.725Z,11.73
2023-05-19T23:45:47.381Z,12.15
2023-05-19T23:48:51.258Z,12.30
2023-05-19T23:51:55.640Z,14.20
2023-05-19T23:54:58.344Z,13.93
2023-05-19T23:58:02.041Z,10.90
